createdAt,value
2023-04-12T00:00:10.539Z,355.02
2023-04-12T00:02:39.468Z,347.00
2023-04-12T00:05:09.648Z,280.15
2023-04-12T00:07:39.211Z,316.65
2023-04-12T00:10:10.612Z,343.90
2023-04-12T00:12:40.773Z,285.15
2023-04-12T00:15:10.075Z,280.77
2023-04-12T00:17:38.428Z,364.45
2023-04-12T00:20:12.056Z,340.02
2023-04-12T00:22:41.304Z,322.83
2023-04-12T00:25:11.531Z,373.73
2023-04-12T00:27:40.614Z,536.03
2023-04-12T00:30:09.971Z,569.20
2023-04-12T00:32:38.359Z,540.78
2023-04-12T00:35:07.582Z,554.20
2023-04-12T00:37:38.433Z,541.53
2023-04-12T00:40:09.876Z,520.47
2023-04-12T00:42:40.242Z,528.85
2023-04-12T00:45:09.320Z,577.97
2023-04-12T00:47:38.614Z,564.72
2023-04-12T00:50:09.200Z,606.47
2023-04-12T00:52:37.701Z,560.25
2023-04-12T00:55:08.191Z,571.95
2023-04-12T00:57:37.666Z,599.65
2023-04-12T01:00:12.756Z,549.10
2023-04-12T01:02:47.498Z,568.30
2023-04-12T01:05:21.964Z,555.15
2023-04-12T01:07:56.748Z,569.30
2023-04-12T01:10:33.995Z,536.42
2023-04-12T01:13:10.893Z,547.83
2023-04-12T01:15:45.444Z,543.67
2023-04-12T01:20:48.334Z,555.22
2023-04-12T01:23:24.063Z,545.37
2023-04-12T01:26:13.483Z,585.30
2023-04-12T01:28:44.583Z,625.20
2023-04-12T01:31:14.669Z,574.97
2023-04-12T01:33:44.945Z,565.00
2023-04-12T01:36:14.739Z,565.60
2023-04-12T01:38:43.659Z,612.47
2023-04-12T01:41:12.243Z,576.88
2023-04-12T01:43:45.597Z,577.63
2023-04-12T01:46:17.136Z,581.00
2023-04-12T01:48:51.283Z,565.15
2023-04-12T01:51:26.065Z,580.55
2023-04-12T01:53:59.013Z,576.70
2023-04-12T01:56:30.751Z,589.20
2023-04-12T01:59:01.201Z,610.15
2023-04-12T02:01:31.604Z,601.85
2023-04-12T02:04:01.750Z,577.10
2023-04-12T02:06:31.543Z,597.17
2023-04-12T02:09:01.009Z,624.08
2023-04-12T02:11:29.558Z,617.45
2023-04-12T02:13:59.452Z,629.92
2023-04-12T02:16:29.127Z,604.60
2023-04-12T02:18:58.831Z,606.15
2023-04-12T02:21:27.820Z,623.00
2023-04-12T02:23:56.411Z,603.08
2023-04-12T02:26:24.933Z,603.97
2023-04-12T02:28:53.755Z,610.00
2023-04-12T02:31:23.611Z,616.00
2023-04-12T02:33:52.075Z,626.40
2023-04-12T02:36:20.922Z,627.40
2023-04-12T02:38:50.806Z,631.13
2023-04-12T02:41:19.530Z,623.50
2023-04-12T02:43:47.911Z,641.45
2023-04-12T02:46:21.744Z,644.25
2023-04-12T02:48:51.931Z,621.90
2023-04-12T02:51:20.392Z,614.55
2023-04-12T02:53:48.715Z,610.30
2023-04-12T02:56:19.289Z,638.65
2023-04-12T02:58:47.674Z,645.83
2023-04-12T03:01:17.092Z,598.47
2023-04-12T03:03:45.581Z,621.97
2023-04-12T03:06:15.279Z,684.53
2023-04-12T03:08:43.609Z,617.95
2023-04-12T03:11:11.910Z,651.55
2023-04-12T03:13:40.235Z,601.10
2023-04-12T03:16:23.496Z,647.70
2023-04-12T03:18:52.120Z,593.22
2023-04-12T03:21:21.807Z,684.60
2023-04-12T03:23:50.229Z,647.70
2023-04-12T03:26:20.390Z,607.65
2023-04-12T03:28:49.376Z,615.05
2023-04-12T03:31:20.976Z,626.80
2023-04-12T03:33:49.507Z,675.92
2023-04-12T03:36:17.876Z,636.80
2023-04-12T03:38:47.592Z,682.67
2023-04-12T03:41:16.427Z,630.08
2023-04-12T03:43:44.814Z,665.95
2023-04-12T03:46:15.504Z,619.42
2023-04-12T03:48:44.251Z,623.15
2023-04-12T03:51:12.980Z,716.53
2023-04-12T03:53:41.434Z,655.72
2023-04-12T03:56:12.487Z,650.97
2023-04-12T03:58:40.945Z,629.20
2023-04-12T04:01:10.092Z,610.47
2023-04-12T04:03:38.817Z,649.63
2023-04-12T04:06:07.844Z,617.47
2023-04-12T04:08:36.270Z,626.70
2023-04-12T04:11:05.428Z,631.15
2023-04-12T04:13:35.981Z,603.83
2023-04-12T04:16:06.796Z,587.78
2023-04-12T04:18:36.076Z,638.80
2023-04-12T04:21:04.724Z,608.13
2023-04-12T04:23:38.473Z,679.80
2023-04-12T04:26:10.436Z,617.90
2023-04-12T04:28:42.178Z,628.10
2023-04-12T04:31:10.713Z,652.55
2023-04-12T04:33:39.892Z,616.78
2023-04-12T04:36:09.399Z,622.85
2023-04-12T04:38:38.091Z,639.65
2023-04-12T04:41:07.177Z,628.85
2023-04-12T04:43:39.760Z,672.03
2023-04-12T04:46:10.699Z,647.58
2023-04-12T04:48:40.741Z,643.22
2023-04-12T04:51:09.366Z,632.20
2023-04-12T04:53:38.370Z,615.78
2023-04-12T04:56:07.891Z,599.97
2023-04-12T04:58:36.206Z,819.25
2023-04-12T05:01:05.274Z,626.83
2023-04-12T05:03:35.052Z,721.80
2023-04-12T05:06:03.509Z,641.75
2023-04-12T05:08:32.031Z,629.67
2023-04-12T05:11:00.469Z,620.30
2023-04-12T05:13:28.864Z,626.60
2023-04-12T05:15:57.234Z,640.50
2023-04-12T05:18:25.609Z,695.05
2023-04-12T05:20:55.287Z,651.42
2023-04-12T05:23:23.630Z,614.47
2023-04-12T05:25:52.192Z,636.72
2023-04-12T05:28:20.485Z,618.97
2023-04-12T05:30:48.852Z,654.65
2023-04-12T05:33:17.215Z,636.20
2023-04-12T05:35:45.685Z,681.05
2023-04-12T05:38:15.388Z,739.00
2023-04-12T05:40:44.852Z,761.83
2023-04-12T05:43:13.486Z,781.15
2023-04-12T05:45:42.189Z,643.42
2023-04-12T05:48:10.688Z,648.10
2023-04-12T05:50:39.251Z,642.65
2023-04-12T05:53:08.134Z,657.55
2023-04-12T05:55:38.278Z,627.58
2023-04-12T05:58:07.148Z,638.45
2023-04-12T06:00:36.411Z,761.90
2023-04-12T06:03:05.097Z,670.80
2023-04-12T06:05:34.774Z,651.67
2023-04-12T06:08:04.602Z,711.08
2023-04-12T06:10:33.396Z,662.20
2023-04-12T06:13:04.271Z,659.50
2023-04-12T06:15:33.523Z,655.78
2023-04-12T06:18:07.236Z,753.40
2023-04-12T06:20:35.787Z,667.63
2023-04-12T06:23:04.251Z,848.72
2023-04-12T06:25:32.600Z,663.70
2023-04-12T06:28:01.006Z,666.65
2023-04-12T06:30:30.767Z,671.92
2023-04-12T06:32:59.238Z,662.15
2023-04-12T06:35:27.599Z,662.95
2023-04-12T06:37:56.062Z,674.05
2023-04-12T06:40:24.407Z,725.42
2023-04-12T06:42:52.833Z,670.55
2023-04-12T06:45:21.244Z,649.92
2023-04-12T06:47:50.968Z,652.80
2023-04-12T06:50:19.512Z,733.05
2023-04-12T06:52:48.801Z,719.78
2023-04-12T06:55:17.468Z,746.63
2023-04-12T06:57:46.188Z,677.10
2023-04-12T07:00:15.507Z,719.47
2023-04-12T07:02:44.111Z,781.60
2023-04-12T07:05:14.559Z,746.42
2023-04-12T07:07:42.994Z,748.40
2023-04-12T07:10:11.606Z,629.83
2023-04-12T07:12:40.413Z,612.08
2023-04-12T07:15:09.609Z,717.45
2023-04-12T07:17:38.056Z,651.17
2023-04-12T07:20:07.149Z,588.03
2023-04-12T07:22:36.862Z,621.38
2023-04-12T07:25:10.113Z,654.95
2023-04-12T07:27:38.618Z,611.10
2023-04-12T07:30:08.020Z,676.08
2023-04-12T07:32:36.745Z,780.50
2023-04-12T07:35:05.463Z,658.03
2023-04-12T07:37:33.800Z,628.08
2023-04-12T07:40:03.476Z,687.15
2023-04-12T07:42:31.847Z,669.17
2023-04-12T07:45:00.543Z,626.47
2023-04-12T07:47:28.926Z,624.70
2023-04-12T07:49:58.835Z,688.78
2023-04-12T07:52:27.758Z,646.97
2023-04-12T07:54:56.086Z,653.90
2023-04-12T07:57:26.243Z,664.75
2023-04-12T07:59:54.767Z,674.63
2023-04-12T08:02:25.976Z,794.40
2023-04-12T08:04:54.883Z,691.30
2023-04-12T08:07:23.951Z,651.65
2023-04-12T08:09:52.393Z,679.67
2023-04-12T08:12:21.885Z,698.10
2023-04-12T08:14:51.558Z,718.70
2023-04-12T08:17:19.870Z,658.15
2023-04-12T08:19:48.291Z,701.25
2023-04-12T08:22:16.606Z,676.58
2023-04-12T08:24:45.029Z,682.85
2023-04-12T08:27:13.930Z,719.17
2023-04-12T08:29:42.242Z,699.78
2023-04-12T08:32:12.618Z,761.45
2023-04-12T08:34:41.038Z,799.70
2023-04-12T08:37:09.370Z,741.25
2023-04-12T08:39:37.746Z,736.20
2023-04-12T08:42:06.499Z,824.35
2023-04-12T08:44:38.857Z,770.55
2023-04-12T08:47:08.416Z,753.80
2023-04-12T08:49:38.441Z,741.67
2023-04-12T08:52:09.073Z,693.95
2023-04-12T08:54:38.353Z,740.92
2023-04-12T08:57:08.326Z,720.88
2023-04-12T08:59:39.721Z,701.13
2023-04-12T09:02:08.484Z,748.28
2023-04-12T09:04:49.517Z,872.10
2023-04-12T09:07:18.175Z,694.45
2023-04-12T09:09:47.337Z,717.75
2023-04-12T09:12:16.259Z,743.53
2023-04-12T09:14:44.901Z,733.00
2023-04-12T09:17:26.373Z,736.70
2023-04-12T09:19:56.357Z,733.78
2023-04-12T09:22:35.253Z,737.80
2023-04-12T09:25:04.058Z,757.30
2023-04-12T09:27:38.238Z,770.05
2023-04-12T09:30:11.204Z,730.15
2023-04-12T09:32:39.676Z,687.40
2023-04-12T09:35:10.479Z,646.20
2023-04-12T09:37:39.315Z,651.13
2023-04-12T09:40:09.610Z,663.17
2023-04-12T09:42:51.238Z,622.60
2023-04-12T09:45:25.532Z,743.13
2023-04-12T09:47:55.215Z,751.75
2023-04-12T09:50:27.331Z,680.88
2023-04-12T09:52:56.980Z,662.00
2023-04-12T09:55:26.741Z,642.80
2023-04-12T09:57:56.418Z,686.03
2023-04-12T10:00:26.814Z,790.97
2023-04-12T10:02:57.349Z,654.67
2023-04-12T10:05:28.311Z,670.03
2023-04-12T10:07:58.088Z,688.42
2023-04-12T10:10:26.618Z,731.35
2023-04-12T10:12:54.981Z,699.78
2023-04-12T10:15:23.435Z,708.50
2023-04-12T10:17:53.522Z,662.55
2023-04-12T10:20:24.821Z,650.38
2023-04-12T10:22:59.262Z,630.85
2023-04-12T10:25:30.795Z,698.22
2023-04-12T10:27:59.912Z,663.78
2023-04-12T10:30:29.618Z,719.20
2023-04-12T10:33:14.677Z,673.22
2023-04-12T10:35:57.498Z,660.63
2023-04-12T10:38:32.934Z,846.55
2023-04-12T10:41:29.000Z,735.95
2023-04-12T10:44:27.087Z,679.95
2023-04-12T10:46:55.563Z,625.60
2023-04-12T10:49:23.969Z,637.47
2023-04-12T10:52:15.815Z,701.35
2023-04-12T10:54:45.527Z,646.92
2023-04-12T10:57:43.415Z,692.63
2023-04-12T11:00:13.037Z,700.22
2023-04-12T11:03:12.526Z,709.80
2023-04-12T11:06:16.256Z,720.80
2023-04-12T11:08:51.401Z,736.10
2023-04-12T11:11:22.762Z,667.28
2023-04-12T11:13:57.171Z,713.10
2023-04-12T11:16:25.571Z,679.83
2023-04-12T11:18:56.050Z,897.58
2023-04-12T11:21:24.943Z,744.90
2023-04-12T11:23:54.522Z,719.53
2023-04-12T11:26:25.371Z,770.63
2023-04-12T11:28:55.854Z,699.72
2023-04-12T11:31:24.720Z,719.28
2023-04-12T11:33:53.125Z,694.20
2023-04-12T11:36:21.544Z,690.53
2023-04-12T11:38:50.292Z,886.25
2023-04-12T11:41:18.764Z,703.85
2023-04-12T11:43:49.442Z,700.95
2023-04-12T11:46:18.547Z,680.58
2023-04-12T11:48:47.703Z,702.53
2023-04-12T11:51:24.859Z,686.50
2023-04-12T11:53:58.187Z,678.17
2023-04-12T11:56:27.525Z,742.67
2023-04-12T11:58:57.644Z,710.22
2023-04-12T12:01:27.794Z,820.20
2023-04-12T12:03:56.966Z,696.55
2023-04-12T12:06:26.467Z,708.88
2023-04-12T12:08:56.174Z,670.05
2023-04-12T12:11:26.541Z,700.00
2023-04-12T12:13:57.898Z,702.30
2023-04-12T12:16:27.877Z,709.90
2023-04-12T12:18:56.855Z,707.70
2023-04-12T12:21:26.206Z,726.88
2023-04-12T12:23:56.562Z,742.22
2023-04-12T12:26:27.104Z,722.83
2023-04-12T12:29:00.305Z,739.15
2023-04-12T12:31:29.869Z,702.78
2023-04-12T12:33:59.233Z,716.38
2023-04-12T12:36:32.568Z,720.75
2023-04-12T12:39:07.402Z,698.77
2023-04-12T12:41:36.440Z,771.15
2023-04-12T12:44:07.770Z,750.78
2023-04-12T12:46:52.039Z,720.05
2023-04-12T12:49:23.792Z,759.97
2023-04-12T12:51:52.763Z,747.35
2023-04-12T12:54:36.640Z,747.75
2023-04-12T12:57:07.565Z,718.25
2023-04-12T12:59:37.656Z,840.20
2023-04-12T13:02:07.461Z,764.13
2023-04-12T13:04:36.382Z,747.85
2023-04-12T13:07:04.903Z,783.60
2023-04-12T13:09:33.689Z,811.10
2023-04-12T13:12:02.187Z,805.92
2023-04-12T13:14:30.721Z,799.88
2023-04-12T13:17:00.457Z,723.97
2023-04-12T13:19:29.147Z,748.55
2023-04-12T13:21:57.878Z,739.97
2023-04-12T13:24:26.368Z,747.88
2023-04-12T13:26:54.945Z,730.92
2023-04-12T13:29:23.303Z,783.67
2023-04-12T13:31:51.890Z,711.20
2023-04-12T13:34:21.921Z,762.05
2023-04-12T13:36:51.146Z,746.10
2023-04-12T13:39:19.553Z,866.65
2023-04-12T13:41:48.140Z,863.55
2023-04-12T13:44:16.506Z,719.55
2023-04-12T13:46:44.927Z,753.22
2023-04-12T13:49:13.605Z,839.03
2023-04-12T13:51:43.643Z,766.40
2023-04-12T13:54:11.962Z,746.92
2023-04-12T13:56:40.339Z,731.03
2023-04-12T13:59:08.960Z,738.35
2023-04-12T14:01:37.357Z,805.53
2023-04-12T14:04:06.488Z,700.25
2023-04-12T14:06:34.957Z,684.03
2023-04-12T14:09:06.508Z,872.63
2023-04-12T14:11:47.757Z,811.95
2023-04-12T14:14:16.900Z,721.72
2023-04-12T14:16:45.671Z,737.88
2023-04-12T14:19:14.097Z,871.40
2023-04-12T14:21:42.459Z,750.70
2023-04-12T14:24:12.508Z,738.47
2023-04-12T14:26:41.118Z,742.25
2023-04-12T14:29:09.721Z,915.63
2023-04-12T14:31:38.408Z,805.97
2023-04-12T14:34:08.628Z,909.90
2023-04-12T14:36:37.077Z,812.78
2023-04-12T14:39:08.514Z,761.85
2023-04-12T14:41:40.004Z,763.00
2023-04-12T14:44:08.489Z,723.78
2023-04-12T14:46:36.893Z,729.05
2023-04-12T14:49:05.280Z,758.80
2023-04-12T14:51:33.846Z,708.30
2023-04-12T14:54:02.519Z,742.45
2023-04-12T14:56:34.664Z,719.40
2023-04-12T14:59:08.987Z,700.85
2023-04-12T15:01:39.283Z,746.58
2023-04-12T15:04:08.213Z,681.60
2023-04-12T15:06:42.339Z,813.95
2023-04-12T15:09:11.036Z,663.03
2023-04-12T15:11:39.837Z,673.92
2023-04-12T15:14:09.576Z,734.60
2023-04-12T15:16:38.212Z,743.47
2023-04-12T15:19:12.053Z,902.47
2023-04-12T15:21:43.559Z,671.85
2023-04-12T15:24:11.964Z,794.13
2023-04-12T15:26:40.385Z,680.15
2023-04-12T15:29:10.313Z,824.95
2023-04-12T15:31:38.781Z,715.47
2023-04-12T15:34:07.356Z,675.25
2023-04-12T15:36:37.340Z,662.08
2023-04-12T15:39:06.676Z,639.22
2023-04-12T15:41:37.236Z,686.10
2023-04-12T15:44:05.813Z,705.15
2023-04-12T15:46:35.751Z,650.03
2023-04-12T15:49:04.406Z,653.72
2023-04-12T15:51:33.211Z,641.85
2023-04-12T15:54:01.705Z,660.88
2023-04-12T15:56:31.401Z,721.75
2023-04-12T15:59:01.089Z,681.15
2023-04-12T16:01:29.821Z,670.97
2023-04-12T16:04:00.020Z,833.13
2023-04-12T16:06:30.494Z,683.80
2023-04-12T16:08:59.160Z,842.40
2023-04-12T16:11:28.380Z,706.78
2023-04-12T16:13:56.762Z,755.83
2023-04-12T16:16:25.559Z,655.60
2023-04-12T16:18:55.764Z,839.40
2023-04-12T16:21:26.530Z,802.03
2023-04-12T16:23:55.479Z,745.08
2023-04-12T16:26:24.061Z,686.17
2023-04-12T16:28:53.224Z,653.33
2023-04-12T16:31:22.652Z,834.70
2023-04-12T16:33:51.856Z,665.58
2023-04-12T16:36:23.286Z,688.55
2023-04-12T16:38:54.885Z,686.03
2023-04-12T16:41:23.898Z,754.72
2023-04-12T16:43:53.884Z,697.05
2023-04-12T16:46:22.654Z,697.97
2023-04-12T16:48:51.065Z,680.92
2023-04-12T16:51:19.616Z,732.05
2023-04-12T16:53:48.335Z,789.88
2023-04-12T16:56:19.885Z,697.50
2023-04-12T16:58:48.910Z,726.50
2023-04-12T17:01:17.901Z,686.22
2023-04-12T17:03:46.821Z,686.40
2023-04-12T17:06:15.495Z,679.55
2023-04-12T17:08:44.905Z,695.47
2023-04-12T17:11:13.342Z,677.83
2023-04-12T17:13:44.651Z,658.85
2023-04-12T17:16:16.105Z,664.28
2023-04-12T17:18:45.775Z,642.17
2023-04-12T17:21:16.904Z,652.45
2023-04-12T17:23:45.421Z,639.72
2023-04-12T17:26:13.961Z,717.97
2023-04-12T17:28:43.679Z,666.45
2023-04-12T17:31:12.045Z,644.63
2023-04-12T17:33:40.497Z,621.15
2023-04-12T17:36:11.758Z,655.65
2023-04-12T17:38:40.827Z,679.53
2023-04-12T17:41:10.355Z,631.42
2023-04-12T17:43:38.763Z,638.85
2023-04-12T17:46:08.988Z,657.55
2023-04-12T17:48:37.566Z,635.53
2023-04-12T17:51:09.737Z,667.88
2023-04-12T17:53:38.173Z,631.20
2023-04-12T17:56:07.291Z,618.55
2023-04-12T17:58:35.796Z,675.22
2023-04-12T18:01:04.319Z,704.85
2023-04-12T18:03:34.390Z,614.25
2023-04-12T18:06:04.125Z,630.33
2023-04-12T18:08:32.493Z,664.08
2023-04-12T18:11:01.077Z,659.90
2023-04-12T18:13:29.391Z,652.97
2023-04-12T18:15:57.823Z,661.15
2023-04-12T18:18:26.277Z,675.42
2023-04-12T18:20:56.040Z,682.53
2023-04-12T18:23:24.676Z,637.22
2023-04-12T18:25:52.988Z,702.00
2023-04-12T18:28:21.302Z,611.00
2023-04-12T18:30:49.707Z,692.47
2023-04-12T18:33:18.436Z,631.00
2023-04-12T18:35:46.782Z,597.75
2023-04-12T18:38:17.306Z,785.53
2023-04-12T18:40:45.624Z,625.90
2023-04-12T18:43:13.997Z,667.92
2023-04-12T18:45:42.731Z,674.65
2023-04-12T18:48:11.294Z,711.80
2023-04-12T18:50:40.146Z,667.92
2023-04-12T18:53:08.714Z,677.67
2023-04-12T18:55:38.363Z,673.03
2023-04-12T18:58:06.992Z,685.38
2023-04-12T19:00:35.631Z,666.25
2023-04-12T19:03:04.196Z,671.58
2023-04-12T19:05:32.814Z,672.97
2023-04-12T19:08:02.106Z,675.13
2023-04-12T19:10:31.695Z,676.72
2023-04-12T19:13:05.803Z,685.00
2023-04-12T19:15:34.121Z,624.88
2023-04-12T19:18:02.540Z,663.70
2023-04-12T19:20:30.948Z,678.95
2023-04-12T19:22:59.277Z,661.83
2023-04-12T19:25:31.367Z,674.30
2023-04-12T19:28:01.761Z,671.63
2023-04-12T19:30:31.991Z,675.60
2023-04-12T19:33:00.505Z,736.05
2023-04-12T19:35:32.697Z,673.38
2023-04-12T19:38:01.088Z,643.30
2023-04-12T19:40:31.169Z,695.22
2023-04-12T19:43:01.126Z,693.80
2023-04-12T19:45:29.889Z,703.40
2023-04-12T19:47:58.262Z,625.13
2023-04-12T19:50:27.094Z,745.25
2023-04-12T19:52:55.409Z,686.65
2023-04-12T19:55:23.736Z,706.03
2023-04-12T19:57:52.169Z,658.88
2023-04-12T20:00:23.152Z,717.88
2023-04-12T20:02:52.684Z,665.28
2023-04-12T20:05:22.334Z,688.65
2023-04-12T20:07:52.576Z,591.83
2023-04-12T20:10:21.608Z,569.75
2023-04-12T20:12:50.057Z,658.83
2023-04-12T20:15:19.386Z,671.97
2023-04-12T20:17:51.838Z,625.30
2023-04-12T20:20:20.382Z,613.63
2023-04-12T20:22:51.829Z,601.22
2023-04-12T20:25:21.126Z,595.83
2023-04-12T20:27:57.976Z,698.00
2023-04-12T20:30:26.429Z,590.78
2023-04-12T20:32:56.232Z,662.53
2023-04-12T20:35:24.864Z,635.83
2023-04-12T20:37:53.396Z,591.83
2023-04-12T20:40:26.967Z,611.30
2023-04-12T20:42:55.506Z,614.97
2023-04-12T20:45:23.974Z,588.78
2023-04-12T20:47:52.570Z,617.17
2023-04-12T20:50:22.952Z,662.28
2023-04-12T20:52:52.693Z,640.63
2023-04-12T20:55:22.598Z,654.10
2023-04-12T20:57:55.589Z,642.63
2023-04-12T21:00:24.248Z,663.83
2023-04-12T21:02:52.778Z,666.97
2023-04-12T21:05:22.698Z,586.65
2023-04-12T21:07:51.214Z,568.42
2023-04-12T21:10:19.778Z,541.33
2023-04-12T21:12:48.149Z,478.02
2023-04-12T21:15:21.742Z,561.38
2023-04-12T21:17:50.714Z,524.42
2023-04-12T21:20:19.139Z,516.30
2023-04-12T21:22:51.687Z,594.58
2023-04-12T21:25:21.158Z,567.35
2023-04-12T21:27:50.220Z,624.13
2023-04-12T21:30:18.583Z,608.33
2023-04-12T21:32:47.107Z,626.92
2023-04-12T21:35:18.178Z,596.83
2023-04-12T21:37:47.920Z,630.85
2023-04-12T21:40:17.133Z,601.83
2023-04-12T21:42:45.830Z,617.50
2023-04-12T21:45:14.576Z,562.28
2023-04-12T21:47:44.079Z,641.72
2023-04-12T21:50:12.983Z,662.15
2023-04-12T21:52:43.015Z,603.60
2023-04-12T21:55:12.828Z,608.47
2023-04-12T21:57:41.347Z,641.40
2023-04-12T22:00:10.614Z,663.55
2023-04-12T22:02:39.244Z,653.10
2023-04-12T22:05:08.609Z,648.17
2023-04-12T22:07:40.835Z,626.63
2023-04-12T22:10:12.308Z,624.55
2023-04-12T22:12:42.202Z,628.60
2023-04-12T22:15:12.205Z,680.38
2023-04-12T22:17:41.034Z,675.55
2023-04-12T22:20:10.967Z,682.83
2023-04-12T22:22:39.794Z,684.88
2023-04-12T22:25:12.069Z,669.40
2023-04-12T22:27:42.154Z,688.67
2023-04-12T22:30:11.590Z,686.28
2023-04-12T22:32:40.160Z,664.10
2023-04-12T22:35:10.070Z,662.13
2023-04-12T22:37:41.233Z,692.92
2023-04-12T22:40:13.506Z,674.38
2023-04-12T22:42:47.372Z,663.30
2023-04-12T22:45:16.642Z,663.77
2023-04-12T22:47:45.376Z,666.17
2023-04-12T22:50:15.014Z,669.08
2023-04-12T22:52:43.526Z,661.53
2023-04-12T22:55:13.872Z,649.47
2023-04-12T22:57:43.597Z,734.47
2023-04-12T23:00:16.826Z,658.67
2023-04-12T23:02:47.643Z,667.40
2023-04-12T23:05:16.445Z,644.95
2023-04-12T23:07:45.009Z,664.63
2023-04-12T23:10:13.539Z,666.47
2023-04-12T23:12:43.406Z,645.80
2023-04-12T23:15:12.725Z,634.47
2023-04-12T23:17:41.134Z,654.60
2023-04-12T23:20:13.071Z,659.33
2023-04-12T23:22:56.505Z,671.13
2023-04-12T23:25:38.922Z,637.90
2023-04-12T23:28:12.489Z,650.22
2023-04-12T23:30:42.873Z,644.58
2023-04-12T23:33:12.057Z,668.17
2023-04-12T23:35:41.582Z,643.85
2023-04-12T23:38:15.476Z,659.40
2023-04-12T23:40:44.445Z,650.35
2023-04-12T23:43:14.178Z,643.95
2023-04-12T23:45:42.589Z,638.95
2023-04-12T23:48:11.030Z,653.00
2023-04-12T23:50:40.315Z,652.20
2023-04-12T23:53:08.715Z,650.90
2023-04-12T23:55:37.296Z,650.40
2023-04-12T23:58:05.770Z,659.70
